createdAt,value
2019-03-13T00:01:45.392Z,5.24
2019-03-13T00:06:47.019Z,5.13
2019-03-13T00:11:50.508Z,5.11
2019-03-13T00:16:52.124Z,5.15
2019-03-13T00:21:53.794Z,5.23
2019-03-13T00:26:55.424Z,5.19
2019-03-13T00:31:59.531Z,5.11
2019-03-13T00:37:00.649Z,4.88
2019-03-13T00:42:02.229Z,4.73
2019-03-13T00:47:03.923Z,4.66
2019-03-13T00:52:05.572Z,4.59
2019-03-13T00:57:07.163Z,4.50
2019-03-13T01:02:08.822Z,4.49
2019-03-13T01:07:10.466Z,4.41
2019-03-13T01:12:12.072Z,4.36
2019-03-13T01:17:13.762Z,4.35
2019-03-13T01:22:15.356Z,4.33
2019-03-13T01:27:17.011Z,4.33
2019-03-13T01:32:18.816Z,4.33
2019-03-13T01:37:20.421Z,4.28
2019-03-13T01:42:22.083Z,4.31
2019-03-13T01:47:23.739Z,4.34
2019-03-13T01:52:25.363Z,4.38
2019-03-13T01:57:26.966Z,4.30
2019-03-13T02:02:28.681Z,4.35
2019-03-13T02:07:30.389Z,4.34
2019-03-13T02:12:32.068Z,4.38
2019-03-13T02:17:33.649Z,4.45
2019-03-13T02:22:35.233Z,4.61
2019-03-13T02:27:37.964Z,4.78
2019-03-13T02:32:39.633Z,4.86
2019-03-13T02:37:41.228Z,4.85
2019-03-13T02:42:42.904Z,4.82
2019-03-13T02:47:44.437Z,4.72
2019-03-13T02:52:46.166Z,4.68
2019-03-13T02:57:47.750Z,4.64
2019-03-13T03:02:49.314Z,4.59
2019-03-13T03:07:50.915Z,4.64
2019-03-13T03:12:52.561Z,4.55
2019-03-13T03:17:54.245Z,4.58
2019-03-13T03:22:55.810Z,4.57
2019-03-13T03:27:57.389Z,4.57
2019-03-13T03:32:59.101Z,4.61
2019-03-13T03:38:00.657Z,4.64
2019-03-13T03:43:02.267Z,4.60
2019-03-13T03:48:03.858Z,4.69
2019-03-13T03:53:05.444Z,4.83
2019-03-13T03:58:07.047Z,4.93
2019-03-13T04:03:08.646Z,5.05
2019-03-13T04:08:10.338Z,5.22
2019-03-13T04:13:11.942Z,5.28
2019-03-13T04:18:13.621Z,5.35
2019-03-13T04:23:15.240Z,5.41
2019-03-13T04:28:16.835Z,5.48
2019-03-13T04:33:18.455Z,5.45
2019-03-13T04:38:20.104Z,5.52
2019-03-13T04:43:21.652Z,5.45
2019-03-13T04:48:23.297Z,5.51
2019-03-13T04:53:24.863Z,5.54
2019-03-13T04:58:26.560Z,5.59
2019-03-13T05:03:28.219Z,5.60
2019-03-13T05:09:08.268Z,5.64
2019-03-13T05:14:09.816Z,5.70
2019-03-13T05:19:11.416Z,5.70
2019-03-13T05:24:13.048Z,5.77
2019-03-13T05:29:14.682Z,5.76
2019-03-13T05:34:16.278Z,5.78
2019-03-13T05:39:17.867Z,5.76
2019-03-13T05:44:19.547Z,5.80
2019-03-13T05:49:21.182Z,5.81
2019-03-13T05:54:22.815Z,5.84
2019-03-13T05:59:24.442Z,5.86
2019-03-13T06:04:26.181Z,5.79
2019-03-13T06:09:28.166Z,5.92
2019-03-13T06:14:29.830Z,5.87
2019-03-13T06:19:31.412Z,5.93
2019-03-13T06:24:33.042Z,5.97
2019-03-13T06:29:34.713Z,5.99
2019-03-13T06:34:36.426Z,5.97
2019-03-13T06:39:38.023Z,5.91
2019-03-13T06:44:40.738Z,5.96
2019-03-13T06:49:42.376Z,5.91
2019-03-13T06:54:45.142Z,5.97
2019-03-13T06:59:46.744Z,5.98
2019-03-13T07:04:48.379Z,5.88
2019-03-13T07:09:50.187Z,5.89
2019-03-13T07:14:51.834Z,6.00
2019-03-13T07:19:53.535Z,6.04
2019-03-13T07:24:55.282Z,6.06
2019-03-13T07:29:57.013Z,6.17
2019-03-13T07:34:58.600Z,6.23
2019-03-13T07:40:00.391Z,6.24
2019-03-13T07:45:02.411Z,6.18
2019-03-13T07:50:04.260Z,6.14
2019-03-13T07:55:05.851Z,6.12
2019-03-13T08:00:08.685Z,6.07
2019-03-13T08:05:16.632Z,6.12
2019-03-13T08:10:18.268Z,6.15
2019-03-13T08:15:19.916Z,6.03
2019-03-13T08:20:21.662Z,6.09
2019-03-13T08:25:23.259Z,6.15
2019-03-13T08:30:24.953Z,6.12
2019-03-13T08:35:26.649Z,6.30
2019-03-13T08:40:28.323Z,6.49
2019-03-13T08:45:30.168Z,6.72
2019-03-13T08:50:31.953Z,6.89
2019-03-13T08:55:35.297Z,7.07
2019-03-13T09:00:40.063Z,7.10
2019-03-13T09:05:41.730Z,7.08
2019-03-13T09:10:43.304Z,7.04
2019-03-13T09:15:44.939Z,7.18
2019-03-13T09:20:46.527Z,7.23
2019-03-13T09:25:48.172Z,7.29
2019-03-13T09:30:49.779Z,7.27
2019-03-13T09:35:51.445Z,7.30
2019-03-13T09:40:53.081Z,7.35
2019-03-13T09:45:54.699Z,7.62
2019-03-13T09:50:56.309Z,7.66
2019-03-13T09:55:57.874Z,7.51
2019-03-13T10:00:59.526Z,7.44
2019-03-13T10:06:01.178Z,7.49
2019-03-13T10:11:03.842Z,7.29
2019-03-13T10:16:05.443Z,7.23
2019-03-13T10:21:07.032Z,7.23
2019-03-13T10:26:08.634Z,7.07
2019-03-13T10:31:10.381Z,6.83
2019-03-13T10:36:12.007Z,6.72
2019-03-13T10:41:13.678Z,6.55
2019-03-13T10:46:15.334Z,6.58
2019-03-13T10:51:16.931Z,6.69
2019-03-13T10:56:19.654Z,6.84
2019-03-13T11:01:21.996Z,6.78
2019-03-13T11:06:23.711Z,6.87
2019-03-13T11:11:25.381Z,6.81
2019-03-13T11:16:27.094Z,6.86
2019-03-13T11:21:28.704Z,6.88
2019-03-13T11:26:30.849Z,6.85
2019-03-13T11:31:32.548Z,7.01
2019-03-13T11:36:35.191Z,7.23
2019-03-13T11:41:37.767Z,7.43
2019-03-13T11:46:39.493Z,7.57
2019-03-13T11:51:41.164Z,7.55
2019-03-13T11:56:42.840Z,7.56
2019-03-13T12:01:45.909Z,7.55
2019-03-13T12:06:48.109Z,7.53
2019-03-13T12:11:49.672Z,7.46
2019-03-13T12:16:51.259Z,7.66
2019-03-13T12:21:52.892Z,7.49
2019-03-13T12:26:54.513Z,7.29
2019-03-13T12:31:56.215Z,7.36
2019-03-13T12:36:57.868Z,7.32
2019-03-13T12:41:59.571Z,7.36
2019-03-13T12:47:01.309Z,7.84
2019-03-13T12:52:04.263Z,7.87
2019-03-13T12:57:05.773Z,7.76
2019-03-13T13:02:07.393Z,7.68
2019-03-13T13:07:09.020Z,7.47
2019-03-13T13:12:10.827Z,7.23
2019-03-13T13:17:12.566Z,7.06
2019-03-13T13:22:14.205Z,7.09
2019-03-13T13:27:15.821Z,7.22
2019-03-13T13:32:17.484Z,7.24
2019-03-13T13:37:19.193Z,7.64
2019-03-13T13:42:20.915Z,7.69
2019-03-13T13:47:22.512Z,7.90
2019-03-13T13:52:25.144Z,7.98
2019-03-13T13:57:26.709Z,8.20
2019-03-13T14:02:28.341Z,7.82
2019-03-13T14:07:29.878Z,7.75
2019-03-13T14:12:31.377Z,7.95
2019-03-13T14:17:33.052Z,8.02
2019-03-13T14:22:34.622Z,7.95
2019-03-13T14:27:36.335Z,8.00
2019-03-13T14:32:37.944Z,8.50
2019-03-13T14:37:39.523Z,8.96
2019-03-13T14:42:41.137Z,9.08
2019-03-13T14:47:42.698Z,9.47
2019-03-13T14:52:44.375Z,9.66
2019-03-13T14:57:46.096Z,9.70
2019-03-13T15:02:50.031Z,9.63
2019-03-13T15:07:51.917Z,9.53
2019-03-13T15:12:53.494Z,9.62
2019-03-13T15:17:55.155Z,9.55
2019-03-13T15:22:56.793Z,9.70
2019-03-13T15:28:01.022Z,9.86
2019-03-13T15:33:02.615Z,9.78
2019-03-13T15:38:04.450Z,9.86
2019-03-13T15:43:06.146Z,9.77
2019-03-13T15:48:07.891Z,9.65
2019-03-13T15:53:09.958Z,8.35
2019-03-13T15:58:11.917Z,8.15
2019-03-13T16:03:13.579Z,8.13
2019-03-13T16:08:15.165Z,8.10
2019-03-13T16:13:16.994Z,8.01
2019-03-13T16:18:18.623Z,8.00
2019-03-13T16:23:22.858Z,7.98
2019-03-13T16:28:34.875Z,7.94
2019-03-13T16:33:36.472Z,7.86
2019-03-13T16:38:38.113Z,7.79
2019-03-13T16:43:42.889Z,7.79
2019-03-13T16:48:44.470Z,7.80
2019-03-13T16:53:46.075Z,7.79
2019-03-13T16:58:48.559Z,7.96
2019-03-13T17:03:52.812Z,7.94
2019-03-13T17:08:54.611Z,7.96
2019-03-13T17:13:59.580Z,8.07
2019-03-13T17:19:03.448Z,8.02
2019-03-13T17:24:05.002Z,8.09
2019-03-13T17:29:07.055Z,7.93
2019-03-13T17:34:08.705Z,7.60
2019-03-13T17:39:10.267Z,7.50
2019-03-13T17:44:11.867Z,7.47
2019-03-13T17:49:13.559Z,7.48
2019-03-13T17:54:15.133Z,7.56
2019-03-13T17:59:16.827Z,7.41
2019-03-13T18:04:18.588Z,7.34
2019-03-13T18:09:20.167Z,7.27
2019-03-13T18:14:21.805Z,7.23
2019-03-13T18:19:23.596Z,7.21
2019-03-13T18:24:27.650Z,7.07
2019-03-13T18:29:29.248Z,7.01
2019-03-13T18:34:30.815Z,6.90
2019-03-13T18:39:32.426Z,6.84
2019-03-13T18:44:34.004Z,6.80
2019-03-13T18:49:35.696Z,6.84
2019-03-13T18:54:37.375Z,6.78
2019-03-13T18:59:38.938Z,6.78
2019-03-13T19:04:40.672Z,6.87
2019-03-13T19:09:42.243Z,6.82
2019-03-13T19:14:43.937Z,6.88
2019-03-13T19:19:45.557Z,6.89
2019-03-13T19:24:47.100Z,6.84
2019-03-13T19:29:48.663Z,6.84
2019-03-13T19:34:50.270Z,6.88
2019-03-13T19:39:52.864Z,6.91
2019-03-13T19:44:54.538Z,6.90
2019-03-13T19:49:56.113Z,6.78
2019-03-13T19:54:57.691Z,6.72
2019-03-13T19:59:59.285Z,6.66
2019-03-13T20:05:00.905Z,6.53
2019-03-13T20:10:03.032Z,6.55
2019-03-13T20:15:05.741Z,6.50
2019-03-13T20:20:09.643Z,6.53
2019-03-13T20:25:11.460Z,6.72
2019-03-13T20:30:14.903Z,6.65
2019-03-13T20:35:16.551Z,6.61
2019-03-13T20:40:18.571Z,6.78
2019-03-13T20:45:20.836Z,6.94
2019-03-13T20:50:35.133Z,6.76
2019-03-13T20:55:26.251Z,6.63
2019-03-13T21:00:28.210Z,6.66
2019-03-13T21:05:30.947Z,6.74
2019-03-13T21:10:32.475Z,6.76
2019-03-13T21:15:34.253Z,6.76
2019-03-13T21:20:36.037Z,6.89
2019-03-13T21:25:37.970Z,6.95
2019-03-13T21:30:39.802Z,7.00
2019-03-13T21:35:41.422Z,7.07
2019-03-13T21:40:43.032Z,7.06
2019-03-13T21:45:44.660Z,7.14
2019-03-13T21:50:46.226Z,7.17
2019-03-13T21:55:47.833Z,7.16
2019-03-13T22:00:49.550Z,7.21
2019-03-13T22:05:51.225Z,7.17
2019-03-13T22:10:52.849Z,7.30
2019-03-13T22:15:54.444Z,7.32
2019-03-13T22:20:56.049Z,7.38
2019-03-13T22:25:58.125Z,7.38
2019-03-13T22:31:02.617Z,7.45
2019-03-13T22:36:03.517Z,7.43
2019-03-13T22:41:05.283Z,7.46
2019-03-13T22:46:06.937Z,7.47
2019-03-13T22:51:08.545Z,7.49
2019-03-13T22:56:10.118Z,7.54
2019-03-13T23:01:11.843Z,7.51
2019-03-13T23:06:13.401Z,7.52
2019-03-13T23:11:14.981Z,7.55
2019-03-13T23:16:16.607Z,7.53
2019-03-13T23:21:18.202Z,7.52
2019-03-13T23:26:19.746Z,7.53
2019-03-13T23:31:21.600Z,7.53
2019-03-13T23:36:23.198Z,7.50
2019-03-13T23:41:24.955Z,7.49
2019-03-13T23:46:27.327Z,7.45
2019-03-13T23:51:30.215Z,7.46
2019-03-13T23:56:31.776Z,7.46
